createdAt,value
2023-02-11T00:02:05.350Z,98860.28
2023-02-11T00:04:36.800Z,98869.66
2023-02-11T00:07:05.041Z,98864.31
2023-02-11T00:09:33.326Z,98864.66
2023-02-11T00:12:01.556Z,98863.16
2023-02-11T00:14:31.232Z,98864.00
2023-02-11T00:16:59.500Z,98856.84
2023-02-11T00:19:27.921Z,98863.84
2023-02-11T00:21:56.213Z,98860.41
2023-02-11T00:24:24.543Z,98860.75
2023-02-11T00:26:52.851Z,98865.44
2023-02-11T00:29:21.120Z,98864.41
2023-02-11T00:31:50.947Z,98863.06
2023-02-11T00:34:19.396Z,98866.91
2023-02-11T00:36:49.402Z,98861.06
2023-02-11T00:39:17.734Z,98858.56
2023-02-11T00:41:45.957Z,98861.06
2023-02-11T00:44:14.446Z,98849.09
2023-02-11T00:46:42.724Z,98857.09
2023-02-11T00:49:13.485Z,98860.41
2023-02-11T00:51:43.187Z,98857.75
2023-02-11T00:54:11.538Z,98857.41
2023-02-11T00:56:40.630Z,98860.06
2023-02-11T00:59:09.295Z,98859.41
2023-02-11T01:01:37.698Z,98853.38
2023-02-11T01:04:06.743Z,98861.19
2023-02-11T01:06:36.643Z,98857.53
2023-02-11T01:09:07.070Z,98856.56
2023-02-11T01:11:37.171Z,98857.13
2023-02-11T01:14:06.089Z,98856.50
2023-02-11T01:16:34.392Z,98844.38
2023-02-11T01:19:02.676Z,98847.19
2023-02-11T01:21:31.026Z,98843.03
2023-02-11T01:24:00.835Z,98849.53
2023-02-11T01:26:29.510Z,98830.03
2023-02-11T01:29:00.966Z,98829.72
2023-02-11T01:31:29.559Z,98825.94
2023-02-11T01:33:57.826Z,98829.72
2023-02-11T01:36:27.222Z,98818.25
2023-02-11T01:38:55.598Z,98812.28
2023-02-11T01:41:25.327Z,98818.25
2023-02-11T01:43:53.731Z,98818.06
2023-02-11T01:46:31.622Z,98814.94
2023-02-11T01:49:08.064Z,98798.09
2023-02-11T01:51:43.090Z,98794.66
2023-02-11T01:54:33.523Z,98784.34
2023-02-11T01:57:25.351Z,98778.50
2023-02-11T02:00:06.116Z,98762.56
2023-02-11T02:02:54.210Z,98761.59
2023-02-11T02:05:33.379Z,98758.88
2023-02-11T02:08:11.191Z,98769.06
2023-02-11T02:10:45.069Z,98770.69
2023-02-11T02:13:15.663Z,98773.34
2023-02-11T02:15:52.025Z,98763.88
2023-02-11T02:18:40.703Z,98763.19
2023-02-11T02:22:15.636Z,98764.16
2023-02-11T02:25:16.273Z,98760.78
2023-02-11T02:28:01.319Z,98758.97
2023-02-11T02:31:07.488Z,98754.94
2023-02-11T02:33:48.541Z,98756.44
2023-02-11T02:36:24.947Z,98750.06
2023-02-11T02:39:01.946Z,98743.75
2023-02-11T02:41:34.302Z,98745.25
2023-02-11T02:44:03.593Z,98738.41
2023-02-11T02:46:35.198Z,98746.75
2023-02-11T02:49:07.919Z,98744.06
2023-02-11T02:52:16.565Z,98747.34
2023-02-11T02:55:19.641Z,98750.69
2023-02-11T02:58:31.428Z,98762.47
2023-02-11T03:01:14.404Z,98759.47
2023-02-11T03:03:52.878Z,98763.13
2023-02-11T03:06:31.569Z,98762.06
2023-02-11T03:09:11.143Z,98762.53
2023-02-11T03:11:41.058Z,98759.59
2023-02-11T03:14:14.877Z,98759.59
2023-02-11T03:16:46.998Z,98761.59
2023-02-11T03:19:21.677Z,98770.41
2023-02-11T03:21:54.643Z,98768.59
2023-02-11T03:24:29.501Z,98763.38
2023-02-11T03:27:04.346Z,98764.31
2023-02-11T03:29:40.243Z,98752.13
2023-02-11T03:32:16.570Z,98744.44
2023-02-11T03:34:55.089Z,98748.84
2023-02-11T03:37:33.759Z,98751.34
2023-02-11T03:40:08.433Z,98750.06
2023-02-11T03:42:44.876Z,98744.38
2023-02-11T03:45:18.231Z,98753.94
2023-02-11T03:47:55.323Z,98749.38
2023-02-11T03:50:27.417Z,98750.66
2023-02-11T03:53:00.256Z,98752.97
2023-02-11T03:55:31.030Z,98759.63
2023-02-11T03:57:59.647Z,98757.38
2023-02-11T04:00:32.249Z,98757.84
2023-02-11T04:03:00.893Z,98761.25
2023-02-11T04:05:29.802Z,98753.38
2023-02-11T04:07:59.683Z,98762.28
2023-02-11T04:10:27.937Z,98761.22
2023-02-11T04:12:56.585Z,98761.94
2023-02-11T04:15:25.151Z,98765.16
2023-02-11T04:17:53.562Z,98755.41
2023-02-11T04:20:22.102Z,98766.00
2023-02-11T04:22:50.413Z,98758.69
2023-02-11T04:25:20.282Z,98759.81
2023-02-11T04:27:48.580Z,98761.53
2023-02-11T04:30:16.819Z,98755.72
2023-02-11T04:32:45.142Z,98753.09
2023-02-11T04:35:13.382Z,98751.56
2023-02-11T04:37:41.914Z,98751.34
2023-02-11T04:40:11.701Z,98752.81
2023-02-11T04:42:41.413Z,98749.94
2023-02-11T04:45:10.574Z,98749.13
2023-02-11T04:47:39.142Z,98738.06
2023-02-11T04:50:07.931Z,98739.31
2023-02-11T04:52:36.250Z,98741.38
2023-02-11T04:55:06.510Z,98738.50
2023-02-11T04:57:35.127Z,98734.63
2023-02-11T05:00:06.479Z,98726.69
2023-02-11T05:02:34.952Z,98739.88
2023-02-11T05:05:03.917Z,98724.56
2023-02-11T05:07:32.510Z,98717.25
2023-02-11T05:10:00.800Z,98710.53
2023-02-11T05:12:29.210Z,98707.84
2023-02-11T05:14:59.511Z,98707.41
2023-02-11T05:17:29.205Z,98699.00
2023-02-11T05:19:57.806Z,98711.59
2023-02-11T05:22:28.141Z,98706.72
2023-02-11T05:24:56.432Z,98700.88
2023-02-11T05:27:24.887Z,98708.09
2023-02-11T05:29:53.205Z,98709.16
2023-02-11T05:32:21.461Z,98716.13
2023-02-11T05:34:51.344Z,98715.75
2023-02-11T05:37:19.844Z,98721.66
2023-02-11T05:39:49.207Z,98722.66
2023-02-11T05:42:17.715Z,98710.31
2023-02-11T05:44:45.962Z,98708.03
2023-02-11T05:47:14.257Z,98716.25
2023-02-11T05:49:42.583Z,98702.25
2023-02-11T05:52:12.248Z,98707.59
2023-02-11T05:54:40.781Z,98701.59
2023-02-11T05:57:09.126Z,98691.75
2023-02-11T05:59:37.504Z,98717.56
2023-02-11T06:02:05.836Z,98736.09
2023-02-11T06:04:34.097Z,98722.53
2023-02-11T06:07:02.761Z,98706.94
2023-02-11T06:09:33.337Z,98713.13
2023-02-11T06:12:01.795Z,98725.88
2023-02-11T06:14:30.387Z,98726.88
2023-02-11T06:16:58.621Z,98713.13
2023-02-11T06:19:26.979Z,98711.66
2023-02-11T06:21:55.248Z,98708.16
2023-02-11T06:24:51.000Z,98695.81
2023-02-11T06:27:14.828Z,98679.19
2023-02-11T06:29:43.201Z,98672.03
2023-02-11T06:32:33.636Z,98681.97
2023-02-11T06:35:01.647Z,98703.38
2023-02-11T06:37:29.848Z,98713.50
2023-02-11T06:39:58.380Z,98718.28
2023-02-11T06:42:28.444Z,98717.91
2023-02-11T06:44:56.774Z,98708.91
2023-02-11T06:47:25.387Z,98698.47
2023-02-11T06:49:53.737Z,98703.44
2023-02-11T06:52:22.039Z,98701.75
2023-02-11T06:54:50.538Z,98718.63
2023-02-11T06:57:19.662Z,98707.34
2023-02-11T06:59:49.504Z,98685.75
2023-02-11T07:02:20.649Z,98678.97
2023-02-11T07:04:49.642Z,98701.00
2023-02-11T07:07:17.901Z,98715.81
2023-02-11T07:09:46.312Z,98704.53
2023-02-11T07:12:14.653Z,98703.38
2023-02-11T07:14:42.921Z,98704.81
2023-02-11T07:17:12.813Z,98714.56
2023-02-11T07:19:41.201Z,98721.44
2023-02-11T07:22:09.810Z,98719.22
2023-02-11T07:24:38.401Z,98711.03
2023-02-11T07:27:07.013Z,98705.09
2023-02-11T07:29:35.855Z,98707.34
2023-02-11T07:32:07.828Z,98699.94
2023-02-11T07:34:38.269Z,98693.38
2023-02-11T07:37:10.939Z,98693.00
2023-02-11T07:39:39.197Z,98687.25
2023-02-11T07:42:07.899Z,98670.16
2023-02-11T07:44:37.079Z,98678.19
2023-02-11T07:47:05.611Z,98666.66
2023-02-11T07:49:33.953Z,98672.84
2023-02-11T07:52:03.540Z,98684.25
2023-02-11T07:54:31.978Z,98670.88
2023-02-11T07:57:00.472Z,98665.94
2023-02-11T07:59:28.893Z,98667.63
2023-02-11T08:01:57.208Z,98686.78
2023-02-11T08:04:26.069Z,98703.09
2023-02-11T08:06:58.973Z,98706.66
2023-02-11T08:09:28.921Z,98697.41
2023-02-11T08:11:57.209Z,98702.78
2023-02-11T08:14:29.470Z,98722.19
2023-02-11T08:16:57.763Z,98714.56
2023-02-11T08:19:27.452Z,98716.44
2023-02-11T08:21:57.552Z,98726.72
2023-02-11T08:24:25.778Z,98719.28
2023-02-11T08:26:57.029Z,98709.19
2023-02-11T08:29:25.626Z,98707.09
2023-02-11T08:31:53.971Z,98704.44
2023-02-11T08:34:23.012Z,98708.16
2023-02-11T08:36:54.393Z,98711.47
2023-02-11T08:39:24.299Z,98706.66
2023-02-11T08:41:56.505Z,98702.94
2023-02-11T08:44:26.834Z,98693.91
2023-02-11T08:46:55.667Z,98684.69
2023-02-11T08:49:24.417Z,98690.75
2023-02-11T08:51:54.206Z,98700.19
2023-02-11T08:54:22.855Z,98698.59
2023-02-11T08:56:53.204Z,98687.50
2023-02-11T08:59:21.504Z,98684.75
2023-02-11T09:01:51.397Z,98676.22
2023-02-11T09:04:20.406Z,98681.66
2023-02-11T09:06:48.750Z,98683.09
2023-02-11T09:09:17.868Z,98696.44
2023-02-11T09:11:47.762Z,98694.09
2023-02-11T09:14:21.419Z,98694.44
2023-02-11T09:16:53.252Z,98688.03
2023-02-11T09:19:23.096Z,98686.31
2023-02-11T09:21:51.588Z,98685.44
2023-02-11T09:24:19.870Z,98685.66
2023-02-11T09:26:49.586Z,98674.13
2023-02-11T09:29:17.879Z,98662.03
2023-02-11T09:31:46.280Z,98661.84
2023-02-11T09:34:16.051Z,98646.59
2023-02-11T09:36:44.749Z,98653.84
2023-02-11T09:39:18.400Z,98657.91
2023-02-11T09:42:41.286Z,98665.34
2023-02-11T09:45:19.775Z,98682.94
2023-02-11T09:47:55.128Z,98681.84
2023-02-11T09:50:33.714Z,98684.22
2023-02-11T09:53:05.936Z,98692.72
2023-02-11T09:55:39.690Z,98696.59
2023-02-11T09:58:15.101Z,98704.44
2023-02-11T10:00:55.327Z,98705.28
2023-02-11T10:03:57.463Z,98691.56
2023-02-11T10:06:42.055Z,98692.69
2023-02-11T10:09:43.074Z,98684.50
2023-02-11T10:12:30.481Z,98670.69
2023-02-11T10:15:18.842Z,98680.44
2023-02-11T10:18:15.984Z,98675.50
2023-02-11T10:21:02.036Z,98678.75
2023-02-11T10:23:38.888Z,98687.47
2023-02-11T10:26:16.084Z,98691.94
2023-02-11T10:28:49.550Z,98693.19
2023-02-11T10:31:24.720Z,98699.94
2023-02-11T10:34:01.709Z,98699.91
2023-02-11T10:36:34.318Z,98691.97
2023-02-11T10:39:15.443Z,98687.00
2023-02-11T10:41:47.417Z,98683.31
2023-02-11T10:44:29.597Z,98679.75
2023-02-11T10:47:00.985Z,98686.41
2023-02-11T10:49:41.778Z,98683.75
2023-02-11T10:52:24.877Z,98677.78
2023-02-11T10:55:06.409Z,98672.63
2023-02-11T10:57:40.118Z,98672.03
2023-02-11T11:00:36.786Z,98666.78
2023-02-11T11:03:15.934Z,98664.06
2023-02-11T11:05:50.602Z,98664.50
2023-02-11T11:08:20.767Z,98664.50
2023-02-11T11:11:07.281Z,98663.91
2023-02-11T11:13:39.301Z,98657.94
2023-02-11T11:16:28.273Z,98649.44
2023-02-11T11:19:21.977Z,98641.69
2023-02-11T11:21:53.751Z,98639.25
2023-02-11T11:24:29.396Z,98637.44
2023-02-11T11:27:03.051Z,98640.44
2023-02-11T11:29:38.107Z,98637.53
2023-02-11T11:32:15.162Z,98642.25
2023-02-11T11:34:49.516Z,98646.31
2023-02-11T11:37:24.994Z,98639.88
2023-02-11T11:40:01.269Z,98635.28
2023-02-11T11:42:34.894Z,98629.03
2023-02-11T11:45:20.432Z,98636.28
2023-02-11T11:47:55.609Z,98630.69
2023-02-11T11:50:35.027Z,98631.19
2023-02-11T11:53:13.430Z,98633.56
2023-02-11T11:55:46.637Z,98625.00
2023-02-11T11:58:20.217Z,98622.06
2023-02-11T12:01:06.746Z,98619.91
2023-02-11T12:04:20.063Z,98623.09
2023-02-11T12:07:12.025Z,98613.13
2023-02-11T12:09:50.572Z,98602.66
2023-02-11T12:12:41.368Z,98609.06
2023-02-11T12:15:32.695Z,98610.97
2023-02-11T12:18:38.268Z,98599.53
2023-02-11T12:21:34.334Z,98597.47
2023-02-11T12:24:29.497Z,98593.81
2023-02-11T12:27:07.118Z,98588.09
2023-02-11T12:29:48.112Z,98595.50
2023-02-11T12:32:32.294Z,98588.13
2023-02-11T12:35:28.904Z,98592.03
2023-02-11T12:38:31.055Z,98584.69
2023-02-11T12:41:43.878Z,98574.69
2023-02-11T12:44:26.797Z,98583.25
2023-02-11T12:47:11.014Z,98579.28
2023-02-11T12:49:58.219Z,98592.88
2023-02-11T12:53:08.158Z,98593.63
2023-02-11T12:55:41.948Z,98587.28
2023-02-11T12:58:20.231Z,98574.53
2023-02-11T13:00:55.968Z,98570.66
2023-02-11T13:03:33.290Z,98565.59
2023-02-11T13:06:10.512Z,98566.47
2023-02-11T13:08:46.025Z,98566.91
2023-02-11T13:11:19.823Z,98566.72
2023-02-11T13:13:56.121Z,98568.28
2023-02-11T13:16:37.747Z,98563.94
2023-02-11T13:19:22.703Z,98564.50
2023-02-11T13:22:14.755Z,98561.47
2023-02-11T13:24:49.486Z,98556.22
2023-02-11T13:27:35.037Z,98555.69
2023-02-11T13:30:28.696Z,98548.44
2023-02-11T13:33:21.417Z,98541.75
2023-02-11T13:36:13.202Z,98542.00
2023-02-11T13:38:53.769Z,98541.81
2023-02-11T13:41:29.937Z,98548.97
2023-02-11T13:44:36.185Z,98552.38
2023-02-11T13:47:06.848Z,98548.56
2023-02-11T13:49:41.081Z,98548.94
2023-02-11T13:52:25.880Z,98538.41
2023-02-11T13:55:00.498Z,98541.03
2023-02-11T13:57:38.314Z,98542.19
2023-02-11T14:00:50.289Z,98530.59
2023-02-11T14:03:52.732Z,98528.09
2023-02-11T14:07:00.822Z,98535.56
2023-02-11T14:09:41.960Z,98530.72
2023-02-11T14:12:35.581Z,98535.59
2023-02-11T14:15:22.511Z,98532.84
2023-02-11T14:17:52.477Z,98533.63
2023-02-11T14:20:51.436Z,98532.25
2023-02-11T14:23:28.480Z,98537.31
2023-02-11T14:26:22.912Z,98534.59
2023-02-11T14:28:59.981Z,98540.06
2023-02-11T14:31:40.046Z,98540.78
2023-02-11T14:34:52.602Z,98547.41
2023-02-11T14:37:40.188Z,98545.41
2023-02-11T14:40:27.958Z,98556.03
2023-02-11T14:42:59.309Z,98559.47
2023-02-11T14:45:31.172Z,98573.31
2023-02-11T14:48:08.554Z,98562.84
2023-02-11T14:50:45.974Z,98559.91
2023-02-11T14:53:20.038Z,98559.06
2023-02-11T14:55:52.515Z,98564.22
2023-02-11T14:58:24.601Z,98558.97
2023-02-11T15:01:01.779Z,98557.53
2023-02-11T15:03:37.942Z,98559.41
2023-02-11T15:06:18.385Z,98556.06
2023-02-11T15:08:52.436Z,98550.56
2023-02-11T15:11:24.758Z,98551.53
2023-02-11T15:13:55.635Z,98553.91
2023-02-11T15:16:29.554Z,98554.34
2023-02-11T15:19:05.181Z,98565.75
2023-02-11T15:21:36.809Z,98565.44
2023-02-11T15:24:21.784Z,98564.13
2023-02-11T15:27:01.842Z,98569.88
2023-02-11T15:29:37.796Z,98573.34
2023-02-11T15:32:14.752Z,98569.81
2023-02-11T15:34:43.524Z,98574.41
2023-02-11T15:37:18.218Z,98569.16
2023-02-11T15:39:46.543Z,98575.94
2023-02-11T15:42:25.141Z,98580.22
2023-02-11T15:45:23.930Z,98578.91
2023-02-11T15:47:57.613Z,98569.31
2023-02-11T15:50:29.010Z,98572.50
2023-02-11T15:53:00.601Z,98572.44
2023-02-11T15:55:30.965Z,98575.97
2023-02-11T15:58:02.781Z,98576.34
2023-02-11T16:00:37.253Z,98582.94
2023-02-11T16:03:06.925Z,98581.22
2023-02-11T16:05:38.704Z,98579.56
2023-02-11T16:08:24.411Z,98575.97
2023-02-11T16:10:59.166Z,98585.16
2023-02-11T16:13:30.278Z,98583.25
2023-02-11T16:16:02.484Z,98584.03
2023-02-11T16:18:39.645Z,98579.84
2023-02-11T16:21:17.474Z,98589.78
2023-02-11T16:23:56.386Z,98590.69
2023-02-11T16:26:31.719Z,98592.84
2023-02-11T16:29:11.738Z,98593.50
2023-02-11T16:31:43.756Z,98588.91
2023-02-11T16:34:19.410Z,98593.66
2023-02-11T16:36:49.058Z,98592.03
2023-02-11T16:39:22.957Z,98595.53
2023-02-11T16:41:53.048Z,98595.78
2023-02-11T16:44:21.669Z,98610.44
2023-02-11T16:46:50.071Z,98611.72
2023-02-11T16:49:25.268Z,98618.56
2023-02-11T16:51:57.391Z,98623.69
2023-02-11T16:54:25.867Z,98622.88
2023-02-11T16:56:54.269Z,98623.81
2023-02-11T16:59:22.553Z,98615.31
2023-02-11T17:01:54.192Z,98618.97
2023-02-11T17:04:30.241Z,98620.09
2023-02-11T17:06:59.364Z,98616.97
2023-02-11T17:09:31.049Z,98625.00
2023-02-11T17:12:00.278Z,98627.06
2023-02-11T17:14:28.716Z,98628.50
2023-02-11T17:16:58.344Z,98640.63
2023-02-11T17:19:28.521Z,98643.50
2023-02-11T17:21:56.863Z,98640.22
2023-02-11T17:24:25.233Z,98653.25
2023-02-11T17:26:54.823Z,98645.38
2023-02-11T17:29:25.731Z,98657.75
2023-02-11T17:31:54.638Z,98648.72
2023-02-11T17:34:24.553Z,98655.31
2023-02-11T17:36:54.458Z,98664.91
2023-02-11T17:39:22.702Z,98670.56
2023-02-11T17:41:51.344Z,98672.78
2023-02-11T17:44:19.604Z,98674.66
2023-02-11T17:46:47.828Z,98676.31
2023-02-11T17:49:16.466Z,98666.06
2023-02-11T17:51:45.421Z,98671.00
2023-02-11T17:54:18.895Z,98670.75
2023-02-11T17:56:50.843Z,98668.03
2023-02-11T17:59:19.512Z,98667.34
2023-02-11T18:01:49.025Z,98671.41
2023-02-11T18:04:20.466Z,98667.09
2023-02-11T18:06:50.249Z,98671.00
2023-02-11T18:09:20.080Z,98673.41
2023-02-11T18:11:48.573Z,98672.13
2023-02-11T18:14:17.280Z,98675.06
2023-02-11T18:16:46.035Z,98670.47
2023-02-11T18:19:15.627Z,98675.66
2023-02-11T18:21:44.017Z,98677.31
2023-02-11T18:24:12.614Z,98683.56
2023-02-11T18:26:43.864Z,98693.69
2023-02-11T18:29:12.187Z,98690.63
2023-02-11T18:31:41.342Z,98695.19
2023-02-11T18:34:11.014Z,98698.97
2023-02-11T18:36:39.575Z,98697.31
2023-02-11T18:39:08.201Z,98698.13
2023-02-11T18:41:37.167Z,98698.00
2023-02-11T18:44:06.987Z,98702.59
2023-02-11T18:46:35.710Z,98686.22
2023-02-11T18:49:04.089Z,98693.75
2023-02-11T18:51:32.666Z,98695.88
2023-02-11T18:54:01.697Z,98700.09
2023-02-11T18:56:30.234Z,98701.41
2023-02-11T18:59:01.497Z,98703.47
2023-02-11T19:01:34.336Z,98693.72
2023-02-11T19:04:05.998Z,98695.34
2023-02-11T19:06:37.951Z,98703.72
2023-02-11T19:09:10.564Z,98704.22
2023-02-11T19:11:51.070Z,98704.69
2023-02-11T19:14:23.594Z,98704.44
2023-02-11T19:16:56.253Z,98705.88
2023-02-11T19:19:28.062Z,98705.66
2023-02-11T19:21:58.093Z,98711.88
2023-02-11T19:24:28.636Z,98708.47
2023-02-11T19:26:59.587Z,98709.41
2023-02-11T19:29:29.879Z,98695.31
2023-02-11T19:31:59.530Z,98696.50
2023-02-11T19:34:27.915Z,98695.78
2023-02-11T19:36:56.819Z,98693.44
2023-02-11T19:39:25.948Z,98699.19
2023-02-11T19:41:55.087Z,98705.66
2023-02-11T19:44:23.436Z,98704.72
2023-02-11T19:46:55.346Z,98722.72
2023-02-11T19:49:26.422Z,98724.56
2023-02-11T19:51:58.122Z,98722.44
2023-02-11T19:54:29.064Z,98719.75
2023-02-11T19:56:58.916Z,98716.91
2023-02-11T19:59:27.626Z,98733.47
2023-02-11T20:01:56.016Z,98742.06
2023-02-11T20:04:32.138Z,98739.13
2023-02-11T20:07:00.761Z,98737.03
2023-02-11T20:09:32.178Z,98734.91
2023-02-11T20:12:00.930Z,98732.56
2023-02-11T20:14:29.189Z,98733.97
2023-02-11T20:16:57.671Z,98738.44
2023-02-11T20:19:28.000Z,98742.16
2023-02-11T20:21:56.414Z,98734.69
2023-02-11T20:24:26.158Z,98735.13
2023-02-11T20:26:56.083Z,98738.88
2023-02-11T20:29:26.022Z,98737.09
2023-02-11T20:31:55.464Z,98738.41
2023-02-11T20:34:25.064Z,98744.16
2023-02-11T20:36:55.721Z,98746.75
2023-02-11T20:39:26.883Z,98739.22
2023-02-11T20:41:56.575Z,98734.88
2023-02-11T20:44:25.340Z,98741.56
2023-02-11T20:46:54.801Z,98738.19
2023-02-11T20:49:25.492Z,98737.09
2023-02-11T20:51:56.694Z,98741.59
2023-02-11T20:54:26.404Z,98746.31
2023-02-11T20:56:56.875Z,98744.88
2023-02-11T20:59:26.470Z,98744.28
2023-02-11T21:01:57.692Z,98737.72
2023-02-11T21:04:29.554Z,98737.63
2023-02-11T21:07:02.819Z,98743.38
2023-02-11T21:09:34.371Z,98743.25
2023-02-11T21:12:02.986Z,98746.63
2023-02-11T21:14:32.018Z,98743.41
2023-02-11T21:17:00.417Z,98742.56
2023-02-11T21:19:28.832Z,98746.72
2023-02-11T21:22:00.645Z,98744.34
2023-02-11T21:24:30.891Z,98751.16
2023-02-11T21:26:59.682Z,98748.44
2023-02-11T21:29:27.945Z,98746.22
2023-02-11T21:31:56.332Z,98738.59
2023-02-11T21:34:25.369Z,98748.19
2023-02-11T21:36:54.365Z,98750.56
2023-02-11T21:39:24.379Z,98749.28
2023-02-11T21:41:52.853Z,98750.69
2023-02-11T21:44:21.141Z,98750.25
2023-02-11T21:46:49.656Z,98751.66
2023-02-11T21:49:20.100Z,98755.53
2023-02-11T21:51:48.850Z,98762.59
2023-02-11T21:54:18.769Z,98758.88
2023-02-11T21:56:51.804Z,98756.38
2023-02-11T21:59:20.458Z,98757.78
2023-02-11T22:01:48.791Z,98762.38
2023-02-11T22:04:17.407Z,98756.75
2023-02-11T22:06:45.876Z,98765.44
2023-02-11T22:09:14.524Z,98757.47
2023-02-11T22:11:42.888Z,98765.13
2023-02-11T22:14:12.566Z,98766.78
2023-02-11T22:16:41.275Z,98766.41
2023-02-11T22:19:10.481Z,98769.41
2023-02-11T22:21:38.784Z,98772.81
2023-02-11T22:24:08.033Z,98787.81
2023-02-11T22:26:36.363Z,98777.81
2023-02-11T22:29:05.111Z,98781.69
2023-02-11T22:31:36.407Z,98782.22
2023-02-11T22:34:06.045Z,98769.53
2023-02-11T22:36:36.927Z,98775.09
2023-02-11T22:39:08.901Z,98769.69
2023-02-11T22:41:38.303Z,98773.59
2023-02-11T22:44:10.340Z,98776.28
2023-02-11T22:46:41.150Z,98773.50
2023-02-11T22:49:10.847Z,98772.19
2023-02-11T22:51:40.427Z,98776.44
2023-02-11T22:54:14.708Z,98783.72
2023-02-11T22:56:43.304Z,98786.47
2023-02-11T22:59:17.310Z,98785.19
2023-02-11T23:01:47.476Z,98792.25
2023-02-11T23:04:19.281Z,98795.91
2023-02-11T23:06:49.426Z,98786.69
2023-02-11T23:09:21.607Z,98790.09
2023-02-11T23:11:54.382Z,98792.00
2023-02-11T23:14:23.035Z,98789.28
2023-02-11T23:16:56.079Z,98797.88
2023-02-11T23:19:24.455Z,98801.56
2023-02-11T23:21:53.851Z,98801.56
2023-02-11T23:24:22.179Z,98802.38
2023-02-11T23:26:50.478Z,98798.34
2023-02-11T23:29:19.666Z,98805.41
2023-02-11T23:31:50.023Z,98806.13
2023-02-11T23:34:25.190Z,98797.78
2023-02-11T23:36:53.875Z,98801.09
2023-02-11T23:39:22.211Z,98795.72
2023-02-11T23:41:52.897Z,98794.75
2023-02-11T23:44:21.144Z,98791.47
2023-02-11T23:46:49.585Z,98798.41
2023-02-11T23:49:19.227Z,98799.44
2023-02-11T23:51:47.664Z,98795.72
2023-02-11T23:54:16.437Z,98798.88
2023-02-11T23:56:44.778Z,98804.41
2023-02-11T23:59:13.314Z,98809.81
